createdAt,value
2022-11-16T12:58:20.619Z,958.59
2022-11-16T12:59:22.585Z,958.55
2022-11-16T13:00:21.540Z,958.56
2022-11-16T13:01:21.624Z,958.60
2022-11-16T13:02:21.798Z,958.57
2022-11-16T13:03:21.680Z,958.56
2022-11-16T13:04:21.499Z,958.59
2022-11-16T13:05:21.475Z,958.56
2022-11-16T13:06:21.612Z,958.58
2022-11-16T13:07:21.519Z,958.58
2022-11-16T13:08:21.439Z,958.54
2022-11-16T13:09:21.445Z,958.65
2022-11-16T13:10:21.446Z,958.44
2022-11-16T13:11:21.410Z,958.47
2022-11-16T13:12:21.389Z,958.51
2022-11-16T13:13:35.836Z,958.47
2022-11-16T13:14:23.486Z,958.56
2022-11-16T13:15:21.358Z,958.56
2022-11-16T13:16:21.488Z,958.57
2022-11-16T13:17:21.481Z,958.50
2022-11-16T13:18:21.334Z,958.53
2022-11-16T13:19:21.316Z,958.50
2022-11-16T13:20:21.361Z,958.50
2022-11-16T13:21:21.299Z,958.52
2022-11-16T13:22:21.291Z,958.46
2022-11-16T13:23:21.268Z,958.46
2022-11-16T13:24:21.261Z,958.48
2022-11-16T13:25:21.311Z,958.47
2022-11-16T13:26:22.233Z,958.48
2022-11-16T13:27:21.226Z,958.47
2022-11-16T13:28:21.214Z,958.40
2022-11-16T13:29:21.201Z,958.42
2022-11-16T13:30:21.200Z,958.40
2022-11-16T13:31:21.196Z,958.40
2022-11-16T13:32:21.167Z,958.45
2022-11-16T13:33:21.160Z,958.45
2022-11-16T13:34:21.168Z,958.44
2022-11-16T13:35:21.131Z,958.40
2022-11-16T13:36:21.160Z,958.38
2022-11-16T13:37:21.110Z,958.39
2022-11-16T13:38:21.117Z,958.34
2022-11-16T13:39:22.829Z,958.39
2022-11-16T13:40:22.076Z,958.37
2022-11-16T13:41:21.264Z,958.35
2022-11-16T13:42:21.056Z,958.35
2022-11-16T13:43:21.077Z,958.36
2022-11-16T13:44:21.041Z,958.41
2022-11-16T13:45:21.011Z,958.38
2022-11-16T13:46:53.695Z,958.41
2022-11-16T13:47:23.035Z,958.36
2022-11-16T13:48:20.985Z,958.39
2022-11-16T13:49:20.976Z,958.32
2022-11-16T13:50:20.976Z,958.37
2022-11-16T13:51:20.953Z,958.39
2022-11-16T13:52:24.058Z,958.40
2022-11-16T13:54:47.244Z,958.34
2022-11-16T13:55:22.923Z,958.34
2022-11-16T13:56:25.597Z,958.35
